Terminal Aerodrome Forecast
Issued by NWS

Home | Current Version | Previous Version | Text Only | Print | Product List | Glossary On
Versions: 1 2 3 4 5 6 7 8 9 10 11 12 13 14 15 16 17 18 19 20 21 22 23 24 25 26 27 28 29 30 31 32 33 34
000
FTUS46 KLOX 221157 AAA
TAFOXR
TAF AMD
KOXR 221157Z 2212/2312 05006KT 5SM -RA BR SCT030 BKN050 OVC080
     FM221300 08009KT P6SM -RA BKN025 OVC050
     FM221500 09012G22KT 5SM -RA BR BKN012 OVC025
     FM221830 18020G30KT 1SM +RA BR BKN007 OVC012
     FM222300 23015G25KT 4SM -RA BKN012 OVC025
     FM230200 21015G25KT 4SM -RA BKN012 OVC025
     FM230800 24022KT 4SM -RA BR OVC025 PROB30 2308/2312 4SM -TSRA
      BKN025CB=

USA.gov is the U.S. government's official web portal to all federal, state and local government web resources and services.